sensor_id;sensor_type;location;lat;lon;timestamp;P1;durP1;ratioP1;P2;durP2;ratioP2
5026;SDS011;2532;52.480;13.354;2023-05-10T04:00:54;11.60;;;9.57;;
5026;SDS011;2532;52.480;13.354;2023-05-10T04:03:21;10.67;;;7.63;;
5026;SDS011;2532;52.480;13.354;2023-05-10T04:05:48;13.07;;;7.10;;
5026;SDS011;2532;52.480;13.354;2023-05-10T04:08:15;8.93;;;7.33;;
5026;SDS011;2532;52.480;13.354;2023-05-10T04:10:42;9.43;;;7.67;;
5026;SDS011;2532;52.480;13.354;2023-05-10T04:13:09;10.50;;;7.20;;
5026;SDS011;2532;52.480;13.354;2023-05-10T04:15:36;9.03;;;6.70;;
5026;SDS011;2532;52.480;13.354;2023-05-10T04:18:04;9.40;;;6.07;;
5026;SDS011;2532;52.480;13.354;2023-05-10T04:20:32;7.93;;;6.37;;
5026;SDS011;2532;52.480;13.354;2023-05-10T04:22:59;9.53;;;6.10;;
5026;SDS011;2532;52.480;13.354;2023-05-10T04:25:26;11.60;;;6.20;;
5026;SDS011;2532;52.480;13.354;2023-05-10T04:27:53;8.50;;;6.60;;
5026;SDS011;2532;52.480;13.354;2023-05-10T04:30:20;10.00;;;6.27;;
5026;SDS011;2532;52.480;13.354;2023-05-10T04:32:47;12.23;;;6.30;;
5026;SDS011;2532;52.480;13.354;2023-05-10T04:35:16;14.73;;;7.00;;
5026;SDS011;2532;52.480;13.354;2023-05-10T04:37:43;9.13;;;6.80;;
5026;SDS011;2532;52.480;13.354;2023-05-10T04:40:10;13.23;;;6.10;;
5026;SDS011;2532;52.480;13.354;2023-05-10T04:42:39;12.20;;;6.13;;
5026;SDS011;2532;52.480;13.354;2023-05-10T04:45:06;10.00;;;5.90;;
5026;SDS011;2532;52.480;13.354;2023-05-10T04:47:34;9.80;;;6.70;;
5026;SDS011;2532;52.480;13.354;2023-05-10T04:50:02;9.83;;;6.30;;
5026;SDS011;2532;52.480;13.354;2023-05-10T04:52:30;10.67;;;6.40;;
5026;SDS011;2532;52.480;13.354;2023-05-10T04:54:57;7.73;;;6.20;;
5026;SDS011;2532;52.480;13.354;2023-05-10T04:57:24;9.07;;;6.13;;
5026;SDS011;2532;52.480;13.354;2023-05-10T04:59:51;8.40;;;6.30;;
5026;SDS011;2532;52.480;13.354;2023-05-10T05:02:18;11.20;;;7.20;;
5026;SDS011;2532;52.480;13.354;2023-05-10T05:04:45;8.67;;;5.87;;
5026;SDS011;2532;52.480;13.354;2023-05-10T05:07:12;7.73;;;5.73;;
5026;SDS011;2532;52.480;13.354;2023-05-10T05:09:41;8.03;;;6.37;;
5026;SDS011;2532;52.480;13.354;2023-05-10T05:12:07;11.13;;;5.80;;
5026;SDS011;2532;52.480;13.354;2023-05-10T05:14:38;7.40;;;6.10;;
5026;SDS011;2532;52.480;13.354;2023-05-10T05:17:06;7.23;;;5.80;;
5026;SDS011;2532;52.480;13.354;2023-05-10T05:19:33;8.30;;;5.77;;
5026;SDS011;2532;52.480;13.354;2023-05-10T05:22:00;6.40;;;5.60;;
5026;SDS011;2532;52.480;13.354;2023-05-10T05:24:27;7.43;;;6.00;;
5026;SDS011;2532;52.480;13.354;2023-05-10T05:26:56;7.37;;;5.40;;
5026;SDS011;2532;52.480;13.354;2023-05-10T05:29:23;7.83;;;5.80;;
5026;SDS011;2532;52.480;13.354;2023-05-10T05:31:49;5.60;;;4.90;;
5026;SDS011;2532;52.480;13.354;2023-05-10T05:34:16;8.20;;;5.70;;
5026;SDS011;2532;52.480;13.354;2023-05-10T05:36:45;13.73;;;5.77;;
5026;SDS011;2532;52.480;13.354;2023-05-10T05:39:12;14.40;;;4.70;;
5026;SDS011;2532;52.480;13.354;2023-05-10T05:41:39;10.07;;;5.00;;
5026;SDS011;2532;52.480;13.354;2023-05-10T05:44:07;8.97;;;5.10;;
5026;SDS011;2532;52.480;13.354;2023-05-10T05:46:40;7.70;;;5.60;;
5026;SDS011;2532;52.480;13.354;2023-05-10T05:49:07;9.27;;;5.27;;
5026;SDS011;2532;52.480;13.354;2023-05-10T05:51:35;7.20;;;5.10;;
5026;SDS011;2532;52.480;13.354;2023-05-10T05:54:02;11.80;;;5.47;;
5026;SDS011;2532;52.480;13.354;2023-05-10T05:56:29;7.47;;;5.23;;
5026;SDS011;2532;52.480;13.354;2023-05-10T05:58:56;10.47;;;5.80;;
5026;SDS011;2532;52.480;13.354;2023-05-10T06:01:24;6.37;;;5.50;;
5026;SDS011;2532;52.480;13.354;2023-05-10T06:03:51;8.13;;;5.20;;
5026;SDS011;2532;52.480;13.354;2023-05-10T06:06:18;10.97;;;5.63;;
5026;SDS011;2532;52.480;13.354;2023-05-10T06:08:45;8.67;;;5.33;;
5026;SDS011;2532;52.480;13.354;2023-05-10T06:11:12;8.73;;;5.10;;
5026;SDS011;2532;52.480;13.354;2023-05-10T06:13:39;8.10;;;5.80;;
5026;SDS011;2532;52.480;13.354;2023-05-10T06:16:07;6.50;;;5.00;;
5026;SDS011;2532;52.480;13.354;2023-05-10T06:18:35;7.87;;;4.30;;
5026;SDS011;2532;52.480;13.354;2023-05-10T06:21:02;8.23;;;5.40;;
5026;SDS011;2532;52.480;13.354;2023-05-10T06:23:29;10.30;;;5.50;;
5026;SDS011;2532;52.480;13.354;2023-05-10T06:25:56;9.03;;;5.00;;
5026;SDS011;2532;52.480;13.354;2023-05-10T06:28:23;10.87;;;5.70;;
5026;SDS011;2532;52.480;13.354;2023-05-10T06:30:50;7.67;;;4.97;;
5026;SDS011;2532;52.480;13.354;2023-05-10T06:33:17;6.50;;;5.10;;
5026;SDS011;2532;52.480;13.354;2023-05-10T06:35:45;9.30;;;5.00;;
5026;SDS011;2532;52.480;13.354;2023-05-10T06:38:12;5.73;;;4.30;;
5026;SDS011;2532;52.480;13.354;2023-05-10T06:40:41;7.00;;;4.47;;
5026;SDS011;2532;52.480;13.354;2023-05-10T06:43:08;5.43;;;4.40;;
5026;SDS011;2532;52.480;13.354;2023-05-10T06:45:35;6.93;;;4.20;;
5026;SDS011;2532;52.480;13.354;2023-05-10T06:48:02;13.30;;;5.17;;
5026;SDS011;2532;52.480;13.354;2023-05-10T06:50:29;8.10;;;4.30;;
5026;SDS011;2532;52.480;13.354;2023-05-10T06:52:58;4.97;;;3.93;;
5026;SDS011;2532;52.480;13.354;2023-05-10T06:55:25;6.00;;;4.13;;
5026;SDS011;2532;52.480;13.354;2023-05-10T06:57:52;9.87;;;6.87;;
5026;SDS011;2532;52.480;13.354;2023-05-10T07:00:19;6.50;;;4.47;;
5026;SDS011;2532;52.480;13.354;2023-05-10T07:02:46;10.43;;;5.03;;
5026;SDS011;2532;52.480;13.354;2023-05-10T07:05:13;5.40;;;4.60;;
5026;SDS011;2532;52.480;13.354;2023-05-10T07:07:40;5.00;;;4.50;;
5026;SDS011;2532;52.480;13.354;2023-05-10T07:10:09;7.90;;;4.00;;
5026;SDS011;2532;52.480;13.354;2023-05-10T07:12:36;6.43;;;3.90;;
5026;SDS011;2532;52.480;13.354;2023-05-10T07:15:04;4.27;;;3.87;;
5026;SDS011;2532;52.480;13.354;2023-05-10T07:17:31;7.10;;;3.90;;
5026;SDS011;2532;52.480;13.354;2023-05-10T07:19:59;13.80;;;6.87;;
5026;SDS011;2532;52.480;13.354;2023-05-10T07:22:26;7.53;;;4.40;;
5026;SDS011;2532;52.480;13.354;2023-05-10T07:24:53;9.03;;;4.37;;
5026;SDS011;2532;52.480;13.354;2023-05-10T07:27:22;12.70;;;5.63;;
5026;SDS011;2532;52.480;13.354;2023-05-10T07:29:49;10.93;;;4.80;;
5026;SDS011;2532;52.480;13.354;2023-05-10T07:32:16;5.90;;;4.57;;
5026;SDS011;2532;52.480;13.354;2023-05-10T07:34:43;6.93;;;4.80;;
5026;SDS011;2532;52.480;13.354;2023-05-10T07:37:10;8.63;;;4.70;;
5026;SDS011;2532;52.480;13.354;2023-05-10T07:39:37;6.77;;;4.50;;
5026;SDS011;2532;52.480;13.354;2023-05-10T07:42:04;8.00;;;5.80;;
5026;SDS011;2532;52.480;13.354;2023-05-10T07:44:32;7.37;;;5.10;;
5026;SDS011;2532;52.480;13.354;2023-05-10T07:46:59;5.43;;;3.80;;
5026;SDS011;2532;52.480;13.354;2023-05-10T07:49:26;5.30;;;3.97;;
5026;SDS011;2532;52.480;13.354;2023-05-10T07:51:53;5.47;;;4.80;;
5026;SDS011;2532;52.480;13.354;2023-05-10T07:54:20;5.50;;;3.60;;
5026;SDS011;2532;52.480;13.354;2023-05-10T07:56:47;12.20;;;5.07;;
5026;SDS011;2532;52.480;13.354;2023-05-10T07:59:14;6.40;;;4.17;;
5026;SDS011;2532;52.480;13.354;2023-05-10T08:01:44;6.87;;;5.63;;
5026;SDS011;2532;52.480;13.354;2023-05-10T08:04:11;14.93;;;7.03;;
5026;SDS011;2532;52.480;13.354;2023-05-10T08:06:38;12.83;;;9.97;;
5026;SDS011;2532;52.480;13.354;2023-05-10T08:09:05;6.10;;;4.60;;
5026;SDS011;2532;52.480;13.354;2023-05-10T08:11:32;9.53;;;5.10;;
5026;SDS011;2532;52.480;13.354;2023-05-10T08:14:00;8.03;;;4.43;;
5026;SDS011;2532;52.480;13.354;2023-05-10T08:16:27;6.37;;;3.80;;
5026;SDS011;2532;52.480;13.354;2023-05-10T08:18:55;8.30;;;4.20;;
5026;SDS011;2532;52.480;13.354;2023-05-10T08:21:22;15.43;;;4.70;;
5026;SDS011;2532;52.480;13.354;2023-05-10T08:23:49;5.47;;;4.50;;
5026;SDS011;2532;52.480;13.354;2023-05-10T08:26:16;9.03;;;5.03;;
5026;SDS011;2532;52.480;13.354;2023-05-10T08:28:43;4.17;;;3.40;;
5026;SDS011;2532;52.480;13.354;2023-05-10T08:31:10;5.53;;;3.77;;
5026;SDS011;2532;52.480;13.354;2023-05-10T08:33:37;4.13;;;3.73;;
5026;SDS011;2532;52.480;13.354;2023-05-10T08:36:05;10.77;;;4.70;;
5026;SDS011;2532;52.480;13.354;2023-05-10T08:38:32;8.40;;;4.60;;
5026;SDS011;2532;52.480;13.354;2023-05-10T08:40:59;8.57;;;3.83;;
5026;SDS011;2532;52.480;13.354;2023-05-10T08:43:28;10.50;;;5.10;;
5026;SDS011;2532;52.480;13.354;2023-05-10T08:45:56;8.37;;;4.50;;
5026;SDS011;2532;52.480;13.354;2023-05-10T08:48:27;7.20;;;4.10;;
5026;SDS011;2532;52.480;13.354;2023-05-10T08:50:56;6.40;;;4.00;;
5026;SDS011;2532;52.480;13.354;2023-05-10T08:53:27;4.80;;;3.83;;
5026;SDS011;2532;52.480;13.354;2023-05-10T08:55:57;7.63;;;4.63;;
5026;SDS011;2532;52.480;13.354;2023-05-10T08:58:24;5.23;;;4.70;;
5026;SDS011;2532;52.480;13.354;2023-05-10T09:00:51;5.90;;;4.20;;
5026;SDS011;2532;52.480;13.354;2023-05-10T09:03:19;6.93;;;4.40;;
5026;SDS011;2532;52.480;13.354;2023-05-10T09:05:46;6.43;;;3.80;;
5026;SDS011;2532;52.480;13.354;2023-05-10T09:08:14;6.83;;;4.37;;
5026;SDS011;2532;52.480;13.354;2023-05-10T09:10:43;5.73;;;3.93;;
5026;SDS011;2532;52.480;13.354;2023-05-10T09:13:12;6.20;;;4.27;;
5026;SDS011;2532;52.480;13.354;2023-05-10T09:15:41;12.40;;;4.70;;
5026;SDS011;2532;52.480;13.354;2023-05-10T09:18:09;4.73;;;4.00;;
5026;SDS011;2532;52.480;13.354;2023-05-10T09:20:36;8.63;;;3.63;;
5026;SDS011;2532;52.480;13.354;2023-05-10T09:23:03;5.47;;;3.90;;
5026;SDS011;2532;52.480;13.354;2023-05-10T09:25:31;9.80;;;4.33;;
5026;SDS011;2532;52.480;13.354;2023-05-10T09:28:00;6.60;;;3.93;;
5026;SDS011;2532;52.480;13.354;2023-05-10T09:30:28;12.40;;;4.53;;
5026;SDS011;2532;52.480;13.354;2023-05-10T09:32:56;4.80;;;4.23;;
5026;SDS011;2532;52.480;13.354;2023-05-10T09:35:25;8.20;;;4.20;;
5026;SDS011;2532;52.480;13.354;2023-05-10T09:37:53;4.97;;;4.20;;
5026;SDS011;2532;52.480;13.354;2023-05-10T09:40:23;8.30;;;4.17;;
5026;SDS011;2532;52.480;13.354;2023-05-10T09:42:51;9.27;;;4.00;;
5026;SDS011;2532;52.480;13.354;2023-05-10T09:45:21;5.10;;;3.97;;
5026;SDS011;2532;52.480;13.354;2023-05-10T09:47:48;5.90;;;3.63;;
5026;SDS011;2532;52.480;13.354;2023-05-10T09:50:16;4.87;;;3.87;;
5026;SDS011;2532;52.480;13.354;2023-05-10T09:52:46;5.13;;;4.00;;
5026;SDS011;2532;52.480;13.354;2023-05-10T09:55:15;9.07;;;4.10;;
5026;SDS011;2532;52.480;13.354;2023-05-10T09:57:45;4.97;;;4.00;;
5026;SDS011;2532;52.480;13.354;2023-05-10T10:00:16;4.00;;;3.60;;
5026;SDS011;2532;52.480;13.354;2023-05-10T10:02:46;7.30;;;4.53;;
5026;SDS011;2532;52.480;13.354;2023-05-10T10:05:14;9.13;;;4.60;;
5026;SDS011;2532;52.480;13.354;2023-05-10T10:07:41;6.70;;;4.20;;
5026;SDS011;2532;52.480;13.354;2023-05-10T10:10:09;6.73;;;5.10;;
5026;SDS011;2532;52.480;13.354;2023-05-10T10:12:38;13.20;;;5.17;;
5026;SDS011;2532;52.480;13.354;2023-05-10T10:15:07;9.87;;;5.80;;
5026;SDS011;2532;52.480;13.354;2023-05-10T10:17:37;6.40;;;5.10;;
5026;SDS011;2532;52.480;13.354;2023-05-10T10:20:07;8.73;;;5.50;;
5026;SDS011;2532;52.480;13.354;2023-05-10T10:22:34;8.37;;;5.40;;
5026;SDS011;2532;52.480;13.354;2023-05-10T10:25:03;13.43;;;6.03;;
5026;SDS011;2532;52.480;13.354;2023-05-10T10:27:34;16.10;;;5.67;;
5026;SDS011;2532;52.480;13.354;2023-05-10T10:30:12;13.13;;;5.47;;
5026;SDS011;2532;52.480;13.354;2023-05-10T10:32:59;6.33;;;4.37;;
5026;SDS011;2532;52.480;13.354;2023-05-10T10:35:37;8.40;;;5.73;;
5026;SDS011;2532;52.480;13.354;2023-05-10T10:38:05;5.53;;;4.63;;
5026;SDS011;2532;52.480;13.354;2023-05-10T10:40:34;5.53;;;4.90;;
5026;SDS011;2532;52.480;13.354;2023-05-10T10:43:21;7.17;;;5.13;;
5026;SDS011;2532;52.480;13.354;2023-05-10T10:48:43;5.97;;;4.83;;
5026;SDS011;2532;52.480;13.354;2023-05-10T10:51:15;6.77;;;5.07;;
5026;SDS011;2532;52.480;13.354;2023-05-10T10:53:42;43.90;;;13.00;;
5026;SDS011;2532;52.480;13.354;2023-05-10T10:56:10;7.37;;;4.90;;
5026;SDS011;2532;52.480;13.354;2023-05-10T10:58:40;8.00;;;5.90;;
5026;SDS011;2532;52.480;13.354;2023-05-10T11:01:11;6.23;;;5.07;;
5026;SDS011;2532;52.480;13.354;2023-05-10T11:03:40;8.23;;;5.43;;
5026;SDS011;2532;52.480;13.354;2023-05-10T11:06:07;5.53;;;4.03;;
5026;SDS011;2532;52.480;13.354;2023-05-10T11:08:41;8.23;;;5.40;;
5026;SDS011;2532;52.480;13.354;2023-05-10T11:11:09;7.57;;;5.33;;
5026;SDS011;2532;52.480;13.354;2023-05-10T11:13:40;9.87;;;5.40;;
5026;SDS011;2532;52.480;13.354;2023-05-10T11:16:18;12.83;;;4.90;;
5026;SDS011;2532;52.480;13.354;2023-05-10T11:18:59;11.20;;;5.10;;
5026;SDS011;2532;52.480;13.354;2023-05-10T11:21:28;6.37;;;4.73;;
5026;SDS011;2532;52.480;13.354;2023-05-10T11:23:57;6.10;;;4.70;;
5026;SDS011;2532;52.480;13.354;2023-05-10T11:26:25;8.53;;;5.30;;
5026;SDS011;2532;52.480;13.354;2023-05-10T11:28:56;11.83;;;4.73;;
5026;SDS011;2532;52.480;13.354;2023-05-10T11:31:27;5.20;;;4.60;;
5026;SDS011;2532;52.480;13.354;2023-05-10T11:33:55;5.70;;;4.63;;
5026;SDS011;2532;52.480;13.354;2023-05-10T11:36:24;6.03;;;4.70;;
5026;SDS011;2532;52.480;13.354;2023-05-10T11:38:52;13.33;;;6.00;;
5026;SDS011;2532;52.480;13.354;2023-05-10T11:41:22;6.00;;;4.80;;
5026;SDS011;2532;52.480;13.354;2023-05-10T11:43:50;10.53;;;4.43;;
5026;SDS011;2532;52.480;13.354;2023-05-10T11:46:18;5.77;;;4.13;;
5026;SDS011;2532;52.480;13.354;2023-05-10T11:48:46;5.43;;;4.40;;
5026;SDS011;2532;52.480;13.354;2023-05-10T11:51:19;8.00;;;4.90;;
5026;SDS011;2532;52.480;13.354;2023-05-10T11:53:46;5.70;;;4.40;;
5026;SDS011;2532;52.480;13.354;2023-05-10T11:56:13;7.73;;;5.07;;
5026;SDS011;2532;52.480;13.354;2023-05-10T11:58:42;4.90;;;4.07;;
5026;SDS011;2532;52.480;13.354;2023-05-10T12:01:09;5.47;;;4.27;;
5026;SDS011;2532;52.480;13.354;2023-05-10T12:03:36;12.30;;;5.20;;
5026;SDS011;2532;52.480;13.354;2023-05-10T12:06:04;11.13;;;5.47;;
5026;SDS011;2532;52.480;13.354;2023-05-10T12:08:33;7.07;;;5.20;;
5026;SDS011;2532;52.480;13.354;2023-05-10T12:11:04;8.40;;;4.50;;
5026;SDS011;2532;52.480;13.354;2023-05-10T12:13:32;5.53;;;4.57;;
5026;SDS011;2532;52.480;13.354;2023-05-10T12:16:13;7.23;;;4.87;;
5026;SDS011;2532;52.480;13.354;2023-05-10T12:18:41;6.33;;;5.00;;
5026;SDS011;2532;52.480;13.354;2023-05-10T12:21:09;6.80;;;5.10;;
5026;SDS011;2532;52.480;13.354;2023-05-10T12:23:37;7.20;;;4.70;;
5026;SDS011;2532;52.480;13.354;2023-05-10T12:26:04;7.10;;;4.53;;
5026;SDS011;2532;52.480;13.354;2023-05-10T12:28:32;13.33;;;7.13;;
5026;SDS011;2532;52.480;13.354;2023-05-10T12:30:59;6.30;;;4.30;;
5026;SDS011;2532;52.480;13.354;2023-05-10T12:33:28;10.00;;;5.33;;
5026;SDS011;2532;52.480;13.354;2023-05-10T12:36:04;5.40;;;4.83;;
5026;SDS011;2532;52.480;13.354;2023-05-10T12:38:32;11.70;;;5.43;;
5026;SDS011;2532;52.480;13.354;2023-05-10T12:41:01;9.03;;;5.10;;
5026;SDS011;2532;52.480;13.354;2023-05-10T12:43:29;17.27;;;5.57;;
5026;SDS011;2532;52.480;13.354;2023-05-10T12:45:57;10.50;;;5.80;;
5026;SDS011;2532;52.480;13.354;2023-05-10T12:48:24;6.73;;;4.77;;
5026;SDS011;2532;52.480;13.354;2023-05-10T12:50:55;10.20;;;4.57;;
5026;SDS011;2532;52.480;13.354;2023-05-10T12:53:21;7.13;;;4.47;;
5026;SDS011;2532;52.480;13.354;2023-05-10T12:55:49;8.53;;;5.40;;
5026;SDS011;2532;52.480;13.354;2023-05-10T12:58:16;8.47;;;5.80;;
5026;SDS011;2532;52.480;13.354;2023-05-10T13:00:42;6.33;;;4.90;;
5026;SDS011;2532;52.480;13.354;2023-05-10T13:03:09;5.30;;;4.47;;
5026;SDS011;2532;52.480;13.354;2023-05-10T13:05:36;8.60;;;5.17;;
5026;SDS011;2532;52.480;13.354;2023-05-10T13:08:05;6.40;;;4.77;;
5026;SDS011;2532;52.480;13.354;2023-05-10T13:10:32;6.90;;;4.90;;
5026;SDS011;2532;52.480;13.354;2023-05-10T13:12:59;5.70;;;5.20;;
5026;SDS011;2532;52.480;13.354;2023-05-10T13:15:26;7.07;;;5.13;;
5026;SDS011;2532;52.480;13.354;2023-05-10T13:17:53;7.50;;;4.20;;
5026;SDS011;2532;52.480;13.354;2023-05-10T13:20:21;7.27;;;4.93;;
5026;SDS011;2532;52.480;13.354;2023-05-10T13:22:48;7.23;;;5.03;;
5026;SDS011;2532;52.480;13.354;2023-05-10T13:25:16;7.03;;;4.63;;
5026;SDS011;2532;52.480;13.354;2023-05-10T13:27:43;6.37;;;4.80;;
5026;SDS011;2532;52.480;13.354;2023-05-10T13:30:10;17.17;;;5.70;;
5026;SDS011;2532;52.480;13.354;2023-05-10T13:32:37;7.37;;;4.70;;
5026;SDS011;2532;52.480;13.354;2023-05-10T13:35:05;8.27;;;5.10;;
5026;SDS011;2532;52.480;13.354;2023-05-10T13:37:32;12.43;;;4.80;;
5026;SDS011;2532;52.480;13.354;2023-05-10T13:40:02;7.00;;;5.07;;
5026;SDS011;2532;52.480;13.354;2023-05-10T13:42:31;6.90;;;4.87;;
5026;SDS011;2532;52.480;13.354;2023-05-10T13:44:59;16.57;;;6.20;;
5026;SDS011;2532;52.480;13.354;2023-05-10T13:47:26;11.17;;;7.60;;
5026;SDS011;2532;52.480;13.354;2023-05-10T13:49:53;11.20;;;5.20;;
5026;SDS011;2532;52.480;13.354;2023-05-10T13:52:21;6.70;;;4.47;;
5026;SDS011;2532;52.480;13.354;2023-05-10T13:54:48;4.97;;;4.13;;
5026;SDS011;2532;52.480;13.354;2023-05-10T13:57:17;11.70;;;4.50;;
5026;SDS011;2532;52.480;13.354;2023-05-10T13:59:45;5.73;;;4.70;;
5026;SDS011;2532;52.480;13.354;2023-05-10T14:02:13;6.63;;;4.93;;
5026;SDS011;2532;52.480;13.354;2023-05-10T14:04:40;7.63;;;4.57;;
5026;SDS011;2532;52.480;13.354;2023-05-10T14:07:07;5.57;;;4.27;;
5026;SDS011;2532;52.480;13.354;2023-05-10T14:09:33;7.50;;;5.03;;
5026;SDS011;2532;52.480;13.354;2023-05-10T14:12:01;6.57;;;4.60;;
5026;SDS011;2532;52.480;13.354;2023-05-10T14:14:28;6.03;;;4.73;;
5026;SDS011;2532;52.480;13.354;2023-05-10T14:16:56;12.73;;;5.70;;
5026;SDS011;2532;52.480;13.354;2023-05-10T14:19:24;6.53;;;5.30;;
5026;SDS011;2532;52.480;13.354;2023-05-10T14:21:52;4.57;;;4.17;;
5026;SDS011;2532;52.480;13.354;2023-05-10T14:24:19;7.13;;;4.47;;
5026;SDS011;2532;52.480;13.354;2023-05-10T14:26:45;6.40;;;4.33;;
5026;SDS011;2532;52.480;13.354;2023-05-10T14:29:12;7.97;;;5.30;;
5026;SDS011;2532;52.480;13.354;2023-05-10T14:31:39;7.60;;;4.77;;
5026;SDS011;2532;52.480;13.354;2023-05-10T14:34:08;14.30;;;4.77;;
5026;SDS011;2532;52.480;13.354;2023-05-10T14:36:35;10.80;;;4.53;;
5026;SDS011;2532;52.480;13.354;2023-05-10T14:39:01;6.77;;;4.43;;
5026;SDS011;2532;52.480;13.354;2023-05-10T14:41:29;7.10;;;4.60;;
5026;SDS011;2532;52.480;13.354;2023-05-10T14:43:56;6.20;;;4.70;;
5026;SDS011;2532;52.480;13.354;2023-05-10T14:46:23;11.23;;;4.70;;
5026;SDS011;2532;52.480;13.354;2023-05-10T14:48:50;7.77;;;4.97;;
5026;SDS011;2532;52.480;13.354;2023-05-10T14:51:18;8.37;;;5.20;;
5026;SDS011;2532;52.480;13.354;2023-05-10T14:53:46;6.23;;;4.70;;
5026;SDS011;2532;52.480;13.354;2023-05-10T14:56:14;5.73;;;4.80;;
5026;SDS011;2532;52.480;13.354;2023-05-10T14:58:41;7.43;;;4.30;;
5026;SDS011;2532;52.480;13.354;2023-05-10T15:01:08;6.37;;;4.33;;
5026;SDS011;2532;52.480;13.354;2023-05-10T15:03:35;5.83;;;4.13;;
5026;SDS011;2532;52.480;13.354;2023-05-10T15:06:03;6.67;;;5.10;;
5026;SDS011;2532;52.480;13.354;2023-05-10T15:08:31;10.03;;;4.30;;
5026;SDS011;2532;52.480;13.354;2023-05-10T15:10:58;6.20;;;4.60;;
5026;SDS011;2532;52.480;13.354;2023-05-10T15:13:25;5.40;;;4.20;;
5026;SDS011;2532;52.480;13.354;2023-05-10T15:15:52;5.03;;;4.50;;
5026;SDS011;2532;52.480;13.354;2023-05-10T15:18:19;5.63;;;4.40;;
5026;SDS011;2532;52.480;13.354;2023-05-10T15:20:46;5.50;;;4.33;;
5026;SDS011;2532;52.480;13.354;2023-05-10T15:23:13;7.30;;;4.70;;
5026;SDS011;2532;52.480;13.354;2023-05-10T15:25:42;6.07;;;4.03;;
5026;SDS011;2532;52.480;13.354;2023-05-10T15:28:09;7.90;;;4.90;;
5026;SDS011;2532;52.480;13.354;2023-05-10T15:30:36;5.23;;;4.33;;
5026;SDS011;2532;52.480;13.354;2023-05-10T15:33:03;7.13;;;4.47;;
5026;SDS011;2532;52.480;13.354;2023-05-10T15:35:30;8.07;;;4.00;;
5026;SDS011;2532;52.480;13.354;2023-05-10T15:41:20;5.30;;;4.80;;
5026;SDS011;2532;52.480;13.354;2023-05-10T15:43:47;6.50;;;4.10;;
5026;SDS011;2532;52.480;13.354;2023-05-10T15:46:15;6.73;;;5.00;;
5026;SDS011;2532;52.480;13.354;2023-05-10T15:48:42;4.67;;;4.23;;
5026;SDS011;2532;52.480;13.354;2023-05-10T15:51:09;10.90;;;5.27;;
5026;SDS011;2532;52.480;13.354;2023-05-10T15:53:38;5.27;;;4.60;;
5026;SDS011;2532;52.480;13.354;2023-05-10T15:56:05;6.43;;;5.17;;
5026;SDS011;2532;52.480;13.354;2023-05-10T15:58:34;8.30;;;4.20;;
5026;SDS011;2532;52.480;13.354;2023-05-10T16:01:01;7.80;;;4.80;;
5026;SDS011;2532;52.480;13.354;2023-05-10T16:03:29;9.30;;;4.83;;
5026;SDS011;2532;52.480;13.354;2023-05-10T16:05:57;6.93;;;4.40;;
5026;SDS011;2532;52.480;13.354;2023-05-10T16:08:24;9.57;;;5.60;;
5026;SDS011;2532;52.480;13.354;2023-05-10T16:10:51;6.40;;;4.63;;
5026;SDS011;2532;52.480;13.354;2023-05-10T16:13:18;11.90;;;5.20;;
5026;SDS011;2532;52.480;13.354;2023-05-10T16:15:46;6.13;;;4.70;;
5026;SDS011;2532;52.480;13.354;2023-05-10T16:18:13;7.07;;;4.73;;
5026;SDS011;2532;52.480;13.354;2023-05-10T16:20:45;7.63;;;4.53;;
5026;SDS011;2532;52.480;13.354;2023-05-10T16:23:12;8.10;;;4.93;;
5026;SDS011;2532;52.480;13.354;2023-05-10T16:25:40;7.13;;;5.27;;
5026;SDS011;2532;52.480;13.354;2023-05-10T16:28:07;10.83;;;5.73;;
5026;SDS011;2532;52.480;13.354;2023-05-10T16:30:35;6.80;;;5.47;;
5026;SDS011;2532;52.480;13.354;2023-05-10T16:33:03;5.80;;;5.30;;
5026;SDS011;2532;52.480;13.354;2023-05-10T16:35:33;9.27;;;5.80;;
5026;SDS011;2532;52.480;13.354;2023-05-10T16:38:00;7.87;;;5.70;;
5026;SDS011;2532;52.480;13.354;2023-05-10T16:40:30;8.93;;;6.67;;
5026;SDS011;2532;52.480;13.354;2023-05-10T16:43:02;7.30;;;6.30;;
5026;SDS011;2532;52.480;13.354;2023-05-10T16:45:33;12.13;;;7.27;;
5026;SDS011;2532;52.480;13.354;2023-05-10T16:48:00;8.57;;;6.90;;
5026;SDS011;2532;52.480;13.354;2023-05-10T16:50:29;8.50;;;7.10;;
5026;SDS011;2532;52.480;13.354;2023-05-10T16:52:56;9.33;;;6.30;;
5026;SDS011;2532;52.480;13.354;2023-05-10T16:55:23;10.33;;;6.97;;
5026;SDS011;2532;52.480;13.354;2023-05-10T16:57:50;12.93;;;6.93;;
5026;SDS011;2532;52.480;13.354;2023-05-10T17:00:23;10.40;;;6.43;;
5026;SDS011;2532;52.480;13.354;2023-05-10T17:02:51;9.10;;;5.90;;
5026;SDS011;2532;52.480;13.354;2023-05-10T17:05:21;8.40;;;6.50;;
5026;SDS011;2532;52.480;13.354;2023-05-10T17:07:49;8.53;;;6.50;;
5026;SDS011;2532;52.480;13.354;2023-05-10T17:10:16;8.17;;;6.23;;
5026;SDS011;2532;52.480;13.354;2023-05-10T17:12:44;13.53;;;6.40;;
5026;SDS011;2532;52.480;13.354;2023-05-10T17:15:14;7.90;;;6.37;;
5026;SDS011;2532;52.480;13.354;2023-05-10T17:17:43;6.87;;;5.93;;
5026;SDS011;2532;52.480;13.354;2023-05-10T17:20:10;14.53;;;6.87;;
5026;SDS011;2532;52.480;13.354;2023-05-10T17:22:37;8.07;;;6.50;;
5026;SDS011;2532;52.480;13.354;2023-05-10T17:25:07;8.03;;;6.70;;
5026;SDS011;2532;52.480;13.354;2023-05-10T17:27:34;8.73;;;6.70;;
5026;SDS011;2532;52.480;13.354;2023-05-10T17:30:03;13.23;;;7.93;;
5026;SDS011;2532;52.480;13.354;2023-05-10T17:32:31;12.30;;;8.20;;
5026;SDS011;2532;52.480;13.354;2023-05-10T17:34:59;13.30;;;7.57;;
5026;SDS011;2532;52.480;13.354;2023-05-10T17:37:26;13.07;;;8.40;;
5026;SDS011;2532;52.480;13.354;2023-05-10T17:39:57;12.70;;;8.90;;
5026;SDS011;2532;52.480;13.354;2023-05-10T17:42:26;11.87;;;10.63;;
5026;SDS011;2532;52.480;13.354;2023-05-10T17:44:53;11.30;;;7.53;;
5026;SDS011;2532;52.480;13.354;2023-05-10T17:47:20;10.80;;;8.10;;
5026;SDS011;2532;52.480;13.354;2023-05-10T17:49:51;11.30;;;7.60;;
5026;SDS011;2532;52.480;13.354;2023-05-10T17:52:19;8.43;;;6.87;;
5026;SDS011;2532;52.480;13.354;2023-05-10T17:54:46;10.70;;;7.90;;
5026;SDS011;2532;52.480;13.354;2023-05-10T17:57:13;13.37;;;9.70;;
5026;SDS011;2532;52.480;13.354;2023-05-10T17:59:42;15.00;;;8.60;;
5026;SDS011;2532;52.480;13.354;2023-05-10T18:02:09;13.83;;;8.47;;
5026;SDS011;2532;52.480;13.354;2023-05-10T18:04:40;10.30;;;7.87;;
5026;SDS011;2532;52.480;13.354;2023-05-10T18:07:08;10.67;;;7.73;;
5026;SDS011;2532;52.480;13.354;2023-05-10T18:09:40;10.57;;;8.10;;
5026;SDS011;2532;52.480;13.354;2023-05-10T18:12:08;10.83;;;9.33;;
5026;SDS011;2532;52.480;13.354;2023-05-10T18:14:35;13.73;;;10.20;;
5026;SDS011;2532;52.480;13.354;2023-05-10T18:17:05;12.27;;;8.37;;
5026;SDS011;2532;52.480;13.354;2023-05-10T18:19:34;9.77;;;7.90;;
5026;SDS011;2532;52.480;13.354;2023-05-10T18:22:09;9.00;;;6.70;;
5026;SDS011;2532;52.480;13.354;2023-05-10T18:24:55;7.43;;;6.50;;
5026;SDS011;2532;52.480;13.354;2023-05-10T18:27:25;9.03;;;6.10;;
5026;SDS011;2532;52.480;13.354;2023-05-10T18:29:58;10.87;;;6.33;;
5026;SDS011;2532;52.480;13.354;2023-05-10T18:32:28;8.13;;;6.47;;
5026;SDS011;2532;52.480;13.354;2023-05-10T18:35:00;9.37;;;7.00;;
5026;SDS011;2532;52.480;13.354;2023-05-10T18:37:30;15.23;;;7.80;;
5026;SDS011;2532;52.480;13.354;2023-05-10T18:40:00;8.63;;;6.73;;
5026;SDS011;2532;52.480;13.354;2023-05-10T18:42:33;8.17;;;7.27;;
5026;SDS011;2532;52.480;13.354;2023-05-10T18:45:12;16.00;;;9.10;;
5026;SDS011;2532;52.480;13.354;2023-05-10T18:47:41;8.50;;;7.60;;
5026;SDS011;2532;52.480;13.354;2023-05-10T18:50:09;10.23;;;7.87;;
5026;SDS011;2532;52.480;13.354;2023-05-10T18:52:38;9.57;;;8.07;;
5026;SDS011;2532;52.480;13.354;2023-05-10T18:55:07;11.30;;;8.50;;
5026;SDS011;2532;52.480;13.354;2023-05-10T18:57:37;16.27;;;11.50;;
5026;SDS011;2532;52.480;13.354;2023-05-10T19:00:07;11.73;;;8.97;;
5026;SDS011;2532;52.480;13.354;2023-05-10T19:02:36;14.13;;;9.80;;
5026;SDS011;2532;52.480;13.354;2023-05-10T19:05:06;12.30;;;7.67;;
5026;SDS011;2532;52.480;13.354;2023-05-10T19:07:34;10.47;;;7.70;;
5026;SDS011;2532;52.480;13.354;2023-05-10T19:12:34;8.90;;;7.57;;